sensor_id;sensor_type;location;lat;lon;timestamp;pressure;altitude;pressure_sealevel;temperature;humidity
54816;BME280;40715;55.752;37.884;2024-03-17T00:00:24;99230.53;;;29.24;23.70
54816;BME280;40715;55.752;37.884;2024-03-17T00:02:50;99227.47;;;29.27;23.55
54816;BME280;40715;55.752;37.884;2024-03-17T00:05:16;99233.06;;;29.25;23.78
54816;BME280;40715;55.752;37.884;2024-03-17T00:07:44;99229.69;;;29.23;23.75
54816;BME280;40715;55.752;37.884;2024-03-17T00:10:11;99221.84;;;29.20;23.84
54816;BME280;40715;55.752;37.884;2024-03-17T00:12:37;99218.97;;;29.22;23.53
54816;BME280;40715;55.752;37.884;2024-03-17T00:15:05;99228.66;;;29.24;23.57
54816;BME280;40715;55.752;37.884;2024-03-17T00:17:32;99217.09;;;29.22;23.65
54816;BME280;40715;55.752;37.884;2024-03-17T00:20:02;99224.25;;;29.23;23.69
54816;BME280;40715;55.752;37.884;2024-03-17T00:22:37;99222.22;;;29.25;23.85
54816;BME280;40715;55.752;37.884;2024-03-17T00:25:08;99210.53;;;29.25;23.44
54816;BME280;40715;55.752;37.884;2024-03-17T00:27:34;99214.09;;;29.25;23.51
54816;BME280;40715;55.752;37.884;2024-03-17T00:30:06;99211.38;;;29.25;23.68
54816;BME280;40715;55.752;37.884;2024-03-17T00:32:39;99201.53;;;29.24;23.69
54816;BME280;40715;55.752;37.884;2024-03-17T00:35:07;99208.81;;;29.24;23.69
54816;BME280;40715;55.752;37.884;2024-03-17T00:37:33;99200.34;;;29.27;23.41
54816;BME280;40715;55.752;37.884;2024-03-17T00:40:03;99200.19;;;29.29;23.39
54816;BME280;40715;55.752;37.884;2024-03-17T00:42:30;99197.63;;;29.27;23.63
54816;BME280;40715;55.752;37.884;2024-03-17T00:44:56;99194.94;;;29.27;23.63
54816;BME280;40715;55.752;37.884;2024-03-17T00:47:25;99202.38;;;29.25;23.36
54816;BME280;40715;55.752;37.884;2024-03-17T00:49:51;99201.81;;;29.81;23.00
54816;BME280;40715;55.752;37.884;2024-03-17T00:52:17;99194.28;;;29.33;23.21
54816;BME280;40715;55.752;37.884;2024-03-17T00:54:46;99191.72;;;29.23;23.42
54816;BME280;40715;55.752;37.884;2024-03-17T00:57:13;99203.69;;;29.21;23.66
54816;BME280;40715;55.752;37.884;2024-03-17T00:59:39;99197.44;;;29.20;23.36
54816;BME280;40715;55.752;37.884;2024-03-17T01:02:05;99196.78;;;29.26;23.52
54816;BME280;40715;55.752;37.884;2024-03-17T01:04:31;99198.81;;;29.24;23.50
54816;BME280;40715;55.752;37.884;2024-03-17T01:07:00;99188.25;;;29.21;23.58
54816;BME280;40715;55.752;37.884;2024-03-17T01:09:25;99188.25;;;29.21;23.57
54816;BME280;40715;55.752;37.884;2024-03-17T01:11:51;99191.53;;;29.25;23.38
54816;BME280;40715;55.752;37.884;2024-03-17T01:14:17;99185.09;;;29.26;23.32
54816;BME280;40715;55.752;37.884;2024-03-17T01:16:43;99183.22;;;29.26;23.44
54816;BME280;40715;55.752;37.884;2024-03-17T01:19:09;99189.50;;;29.27;23.39
54816;BME280;40715;55.752;37.884;2024-03-17T01:21:35;99183.56;;;29.23;23.18
54816;BME280;40715;55.752;37.884;2024-03-17T01:24:01;99176.09;;;29.25;23.32
54816;BME280;40715;55.752;37.884;2024-03-17T01:26:27;99173.38;;;29.25;23.48
54816;BME280;40715;55.752;37.884;2024-03-17T01:28:53;99181.69;;;29.24;23.44
54816;BME280;40715;55.752;37.884;2024-03-17T01:31:19;99171.53;;;29.26;23.41
54816;BME280;40715;55.752;37.884;2024-03-17T01:33:45;99166.44;;;29.23;23.33
54816;BME280;40715;55.752;37.884;2024-03-17T01:36:12;99163.00;;;29.21;23.38
54816;BME280;40715;55.752;37.884;2024-03-17T01:38:38;99167.88;;;29.76;22.90
54816;BME280;40715;55.752;37.884;2024-03-17T01:41:04;99172.22;;;29.28;23.07
54816;BME280;40715;55.752;37.884;2024-03-17T01:43:30;99168.25;;;29.22;23.18
54816;BME280;40715;55.752;37.884;2024-03-17T01:45:58;99161.63;;;29.17;23.47
54816;BME280;40715;55.752;37.884;2024-03-17T01:48:25;99166.22;;;29.16;23.47
54816;BME280;40715;55.752;37.884;2024-03-17T01:50:53;99163.50;;;29.16;23.19
54816;BME280;40715;55.752;37.884;2024-03-17T01:53:21;99151.28;;;29.12;23.36
54816;BME280;40715;55.752;37.884;2024-03-17T01:55:50;99166.06;;;29.18;23.15
54816;BME280;40715;55.752;37.884;2024-03-17T01:58:17;99161.47;;;29.18;23.47
54816;BME280;40715;55.752;37.884;2024-03-17T02:00:46;99152.34;;;29.19;23.27
54816;BME280;40715;55.752;37.884;2024-03-17T02:03:12;99155.56;;;29.23;23.23
54816;BME280;40715;55.752;37.884;2024-03-17T02:05:41;99155.47;;;29.74;22.56
54816;BME280;40715;55.752;37.884;2024-03-17T02:08:07;99153.72;;;29.23;22.93
54816;BME280;40715;55.752;37.884;2024-03-17T02:10:36;99145.97;;;29.70;22.50
54816;BME280;40715;55.752;37.884;2024-03-17T02:13:02;99148.06;;;29.17;23.20
54816;BME280;40715;55.752;37.884;2024-03-17T02:15:33;99143.31;;;29.10;23.27
54816;BME280;40715;55.752;37.884;2024-03-17T02:18:18;99151.28;;;29.12;23.32
54816;BME280;40715;55.752;37.884;2024-03-17T02:20:44;99141.44;;;29.11;23.07
54816;BME280;40715;55.752;37.884;2024-03-17T02:23:28;99141.78;;;29.08;23.00
54816;BME280;40715;55.752;37.884;2024-03-17T02:25:54;99140.63;;;29.10;23.16
54816;BME280;40715;55.752;37.884;2024-03-17T02:28:20;99139.75;;;29.10;23.04
54816;BME280;40715;55.752;37.884;2024-03-17T02:30:46;99140.63;;;29.10;23.06
54816;BME280;40715;55.752;37.884;2024-03-17T02:33:13;99127.06;;;29.10;23.14
54816;BME280;40715;55.752;37.884;2024-03-17T02:35:39;99128.06;;;29.09;23.08
54816;BME280;40715;55.752;37.884;2024-03-17T02:38:05;99127.88;;;29.11;23.14
54816;BME280;40715;55.752;37.884;2024-03-17T02:40:33;99125.19;;;29.11;22.99
54816;BME280;40715;55.752;37.884;2024-03-17T02:43:00;99126.88;;;29.12;22.95
54816;BME280;40715;55.752;37.884;2024-03-17T02:45:25;99128.59;;;29.13;22.97
54816;BME280;40715;55.752;37.884;2024-03-17T02:47:52;99126.72;;;29.14;23.12
54816;BME280;40715;55.752;37.884;2024-03-17T02:50:18;99121.28;;;29.14;22.93
54816;BME280;40715;55.752;37.884;2024-03-17T02:52:44;99118.41;;;29.15;23.08
54816;BME280;40715;55.752;37.884;2024-03-17T02:55:09;99118.41;;;29.15;23.08
54816;BME280;40715;55.752;37.884;2024-03-17T02:57:35;99118.06;;;29.18;23.04
54816;BME280;40715;55.752;37.884;2024-03-17T03:00:01;99120.94;;;29.17;22.92
54816;BME280;40715;55.752;37.884;2024-03-17T03:02:32;99113.81;;;29.16;23.07
54816;BME280;40715;55.752;37.884;2024-03-17T03:04:58;99115.34;;;29.18;22.98
54816;BME280;40715;55.752;37.884;2024-03-17T03:07:24;99122.66;;;29.18;23.01
54816;BME280;40715;55.752;37.884;2024-03-17T03:09:51;99111.13;;;29.16;22.78
54816;BME280;40715;55.752;37.884;2024-03-17T03:12:17;99111.28;;;29.14;22.79
54816;BME280;40715;55.752;37.884;2024-03-17T03:14:42;99109.09;;;29.18;22.87
54816;BME280;40715;55.752;37.884;2024-03-17T03:17:08;99111.44;;;29.13;22.82
54816;BME280;40715;55.752;37.884;2024-03-17T03:19:35;99109.28;;;29.16;22.93
54816;BME280;40715;55.752;37.884;2024-03-17T03:22:01;99111.13;;;29.16;22.96
54816;BME280;40715;55.752;37.884;2024-03-17T03:24:27;99115.53;;;29.17;22.78
54816;BME280;40715;55.752;37.884;2024-03-17T03:26:53;99117.97;;;29.69;22.32
54816;BME280;40715;55.752;37.884;2024-03-17T03:29:19;99115.03;;;29.21;22.70
54816;BME280;40715;55.752;37.884;2024-03-17T03:31:45;99114.16;;;29.13;22.86
54816;BME280;40715;55.752;37.884;2024-03-17T03:34:11;99098.63;;;29.64;22.33
54816;BME280;40715;55.752;37.884;2024-03-17T03:36:38;99099.44;;;29.15;22.75
54816;BME280;40715;55.752;37.884;2024-03-17T03:39:05;99099.56;;;29.05;23.01
54816;BME280;40715;55.752;37.884;2024-03-17T03:41:31;99098.03;;;29.03;23.06
54816;BME280;40715;55.752;37.884;2024-03-17T03:44:01;99089.41;;;29.07;22.85
54816;BME280;40715;55.752;37.884;2024-03-17T03:46:27;99096.19;;;29.12;22.93
54816;BME280;40715;55.752;37.884;2024-03-17T03:48:53;99097.88;;;29.13;22.74
54816;BME280;40715;55.752;37.884;2024-03-17T03:51:19;99098.91;;;29.12;22.59
54816;BME280;40715;55.752;37.884;2024-03-17T03:53:45;99100.44;;;29.14;22.87
54816;BME280;40715;55.752;37.884;2024-03-17T03:56:11;99097.72;;;29.14;22.66
54816;BME280;40715;55.752;37.884;2024-03-17T03:58:38;99086.19;;;29.12;23.02
54816;BME280;40715;55.752;37.884;2024-03-17T04:01:09;99094.34;;;29.12;23.01
54816;BME280;40715;55.752;37.884;2024-03-17T04:03:37;99092.47;;;29.13;22.90
54816;BME280;40715;55.752;37.884;2024-03-17T04:06:08;99078.72;;;29.14;22.81
54816;BME280;40715;55.752;37.884;2024-03-17T04:08:37;99081.63;;;29.13;22.59
54816;BME280;40715;55.752;37.884;2024-03-17T04:11:05;99082.31;;;29.15;22.61
54816;BME280;40715;55.752;37.884;2024-03-17T04:13:33;99086.03;;;29.14;22.55
54816;BME280;40715;55.752;37.884;2024-03-17T04:16:00;99078.38;;;29.17;22.81
54816;BME280;40715;55.752;37.884;2024-03-17T04:18:27;99086.53;;;29.17;22.65
54816;BME280;40715;55.752;37.884;2024-03-17T04:20:58;99072.47;;;29.14;22.71
54816;BME280;40715;55.752;37.884;2024-03-17T04:23:27;99073.66;;;29.19;22.68
54816;BME280;40715;55.752;37.884;2024-03-17T04:25:53;99087.06;;;29.21;22.56
54816;BME280;40715;55.752;37.884;2024-03-17T04:28:19;99078.44;;;29.75;21.93
54816;BME280;40715;55.752;37.884;2024-03-17T04:30:45;99083.53;;;29.29;22.44
54816;BME280;40715;55.752;37.884;2024-03-17T04:33:14;99080.09;;;29.18;22.42
54816;BME280;40715;55.752;37.884;2024-03-17T04:35:40;99082.34;;;29.23;22.38
54816;BME280;40715;55.752;37.884;2024-03-17T04:38:07;99086.22;;;29.20;22.54
54816;BME280;40715;55.752;37.884;2024-03-17T04:40:33;99077.78;;;29.23;22.69
54816;BME280;40715;55.752;37.884;2024-03-17T04:43:00;99075.72;;;29.25;22.13
54816;BME280;40715;55.752;37.884;2024-03-17T04:45:26;99079.13;;;29.27;22.65
54816;BME280;40715;55.752;37.884;2024-03-17T04:47:52;99085.59;;;29.35;22.28
54816;BME280;40715;55.752;37.884;2024-03-17T04:50:18;99084.22;;;29.88;22.00
54816;BME280;40715;55.752;37.884;2024-03-17T04:52:44;99083.03;;;29.41;22.27
54816;BME280;40715;55.752;37.884;2024-03-17T04:55:10;99085.56;;;29.92;21.80
54816;BME280;40715;55.752;37.884;2024-03-17T04:57:36;99081.00;;;29.43;21.99
54816;BME280;40715;55.752;37.884;2024-03-17T05:00:03;99074.72;;;29.35;22.15
54816;BME280;40715;55.752;37.884;2024-03-17T05:02:32;99082.34;;;29.39;22.41
54816;BME280;40715;55.752;37.884;2024-03-17T05:04:59;99083.03;;;29.41;22.22
54816;BME280;40715;55.752;37.884;2024-03-17T05:07:25;99084.91;;;29.49;22.19
54816;BME280;40715;55.752;37.884;2024-03-17T05:09:51;99094.06;;;29.56;22.16
54816;BME280;40715;55.752;37.884;2024-03-17T05:12:17;99092.03;;;29.58;22.17
54816;BME280;40715;55.752;37.884;2024-03-17T05:14:43;99091.53;;;29.63;22.03
54816;BME280;40715;55.752;37.884;2024-03-17T05:17:08;99096.63;;;29.66;22.28
54816;BME280;40715;55.752;37.884;2024-03-17T05:19:34;99096.44;;;29.68;21.93
54816;BME280;40715;55.752;37.884;2024-03-17T05:22:00;99095.75;;;29.74;22.09
54816;BME280;40715;55.752;37.884;2024-03-17T05:24:26;99095.41;;;29.77;22.06
54816;BME280;40715;55.752;37.884;2024-03-17T05:26:52;99091.16;;;29.83;21.91
54816;BME280;40715;55.752;37.884;2024-03-17T05:29:19;99090.31;;;29.82;21.67
54816;BME280;40715;55.752;37.884;2024-03-17T05:31:45;99095.78;;;29.90;21.86
54816;BME280;40715;55.752;37.884;2024-03-17T05:34:12;99093.06;;;29.90;21.68
54816;BME280;40715;55.752;37.884;2024-03-17T05:36:38;99102.88;;;30.00;21.73
54816;BME280;40715;55.752;37.884;2024-03-17T05:39:04;99103.22;;;30.05;21.44
54816;BME280;40715;55.752;37.884;2024-03-17T05:41:30;99094.53;;;30.09;21.51
54816;BME280;40715;55.752;37.884;2024-03-17T05:43:56;99099.44;;;30.14;21.39
54816;BME280;40715;55.752;37.884;2024-03-17T05:46:29;99100.13;;;30.16;21.34
54816;BME280;40715;55.752;37.884;2024-03-17T05:48:55;99096.22;;;30.19;21.57
54816;BME280;40715;55.752;37.884;2024-03-17T05:51:21;99097.22;;;30.26;21.42
54816;BME280;40715;55.752;37.884;2024-03-17T05:53:48;99086.00;;;30.29;21.46
54816;BME280;40715;55.752;37.884;2024-03-17T05:56:14;99094.63;;;30.33;21.17
54816;BME280;40715;55.752;37.884;2024-03-17T05:58:42;99099.41;;;30.39;21.04
54816;BME280;40715;55.752;37.884;2024-03-17T06:01:08;99098.06;;;30.43;21.31
54816;BME280;40715;55.752;37.884;2024-03-17T06:03:38;99094.81;;;30.48;21.11
54816;BME280;40715;55.752;37.884;2024-03-17T06:06:05;99085.28;;;30.52;21.09
54816;BME280;40715;55.752;37.884;2024-03-17T06:08:36;99091.19;;;30.55;20.91
54816;BME280;40715;55.752;37.884;2024-03-17T06:11:02;99095.75;;;30.63;21.08
54816;BME280;40715;55.752;37.884;2024-03-17T06:13:28;99095.03;;;30.69;20.77
54816;BME280;40715;55.752;37.884;2024-03-17T06:15:54;99092.31;;;30.69;21.02
54816;BME280;40715;55.752;37.884;2024-03-17T06:18:20;99088.41;;;30.72;20.99
54816;BME280;40715;55.752;37.884;2024-03-17T06:20:47;99083.94;;;30.79;21.09
54816;BME280;40715;55.752;37.884;2024-03-17T06:23:16;99082.75;;;30.81;21.04
54816;BME280;40715;55.752;37.884;2024-03-17T06:25:47;99085.13;;;30.85;20.56
54816;BME280;40715;55.752;37.884;2024-03-17T06:28:15;99084.38;;;30.91;20.95
54816;BME280;40715;55.752;37.884;2024-03-17T06:30:42;99085.91;;;30.93;20.47
54816;BME280;40715;55.752;37.884;2024-03-17T06:33:11;99081.13;;;30.95;20.46
54816;BME280;40715;55.752;37.884;2024-03-17T06:35:37;99085.91;;;31.02;20.49
54816;BME280;40715;55.752;37.884;2024-03-17T06:38:03;99083.66;;;31.05;20.58
54816;BME280;40715;55.752;37.884;2024-03-17T06:40:29;99078.53;;;31.10;20.58
54816;BME280;40715;55.752;37.884;2024-03-17T06:42:56;99075.63;;;31.12;20.33
54816;BME280;40715;55.752;37.884;2024-03-17T06:45:22;99079.22;;;31.74;19.84
54816;BME280;40715;55.752;37.884;2024-03-17T06:47:48;99084.88;;;31.26;20.22
54816;BME280;40715;55.752;37.884;2024-03-17T06:50:14;99087.13;;;31.22;20.09
54816;BME280;40715;55.752;37.884;2024-03-17T06:52:40;99086.94;;;31.24;20.04
54816;BME280;40715;55.752;37.884;2024-03-17T06:55:07;99085.91;;;31.25;20.39
54816;BME280;40715;55.752;37.884;2024-03-17T06:57:33;99083.84;;;31.27;19.98
54816;BME280;40715;55.752;37.884;2024-03-17T07:00:00;99077.19;;;31.29;20.51
54816;BME280;40715;55.752;37.884;2024-03-17T07:02:26;99079.50;;;31.41;20.46
54816;BME280;40715;55.752;37.884;2024-03-17T07:04:52;99088.63;;;31.48;20.11
54816;BME280;40715;55.752;37.884;2024-03-17T07:07:18;99089.78;;;32.07;19.94
54816;BME280;40715;55.752;37.884;2024-03-17T07:09:47;99082.41;;;31.62;19.75
54816;BME280;40715;55.752;37.884;2024-03-17T07:12:13;99086.53;;;31.58;19.74
54816;BME280;40715;55.752;37.884;2024-03-17T07:14:39;99085.50;;;31.59;19.96
54816;BME280;40715;55.752;37.884;2024-03-17T07:17:05;99081.00;;;31.66;19.72
54816;BME280;40715;55.752;37.884;2024-03-17T07:19:31;99080.47;;;31.71;20.05
54816;BME280;40715;55.752;37.884;2024-03-17T07:21:58;99081.31;;;31.72;20.02
54816;BME280;40715;55.752;37.884;2024-03-17T07:24:24;99069.41;;;31.73;19.37
54816;BME280;40715;55.752;37.884;2024-03-17T07:26:50;99073.72;;;31.82;19.38
54816;BME280;40715;55.752;37.884;2024-03-17T07:29:17;99072.88;;;31.81;19.43
54816;BME280;40715;55.752;37.884;2024-03-17T07:31:45;99076.06;;;31.85;19.76
54816;BME280;40715;55.752;37.884;2024-03-17T07:34:10;99072.56;;;32.44;19.21
54816;BME280;40715;55.752;37.884;2024-03-17T07:36:36;99077.13;;;31.99;19.60
54816;BME280;40715;55.752;37.884;2024-03-17T07:39:02;99068.19;;;31.90;19.23
54816;BME280;40715;55.752;37.884;2024-03-17T07:41:28;99074.00;;;31.87;19.50
54816;BME280;40715;55.752;37.884;2024-03-17T07:43:54;99076.38;;;31.90;19.23
54816;BME280;40715;55.752;37.884;2024-03-17T07:46:20;99070.91;;;31.90;19.34
54816;BME280;40715;55.752;37.884;2024-03-17T07:48:46;99073.19;;;32.46;19.19
54816;BME280;40715;55.752;37.884;2024-03-17T07:51:13;99062.56;;;31.92;19.20
54816;BME280;40715;55.752;37.884;2024-03-17T07:53:41;99079.16;;;31.82;19.21
54816;BME280;40715;55.752;37.884;2024-03-17T07:56:09;99073.25;;;31.78;19.31
54816;BME280;40715;55.752;37.884;2024-03-17T07:58:37;99072.75;;;31.75;19.58
54816;BME280;40715;55.752;37.884;2024-03-17T08:01:05;99075.69;;;31.73;19.39
54816;BME280;40715;55.752;37.884;2024-03-17T08:03:33;99067.88;;;31.70;19.28
54816;BME280;40715;55.752;37.884;2024-03-17T08:06:01;99073.31;;;31.70;19.19
54816;BME280;40715;55.752;37.884;2024-03-17T08:08:28;99062.25;;;31.72;19.48
54816;BME280;40715;55.752;37.884;2024-03-17T08:10:54;99070.59;;;31.70;19.30
54816;BME280;40715;55.752;37.884;2024-03-17T08:13:21;99065.53;;;31.67;19.41
54816;BME280;40715;55.752;37.884;2024-03-17T08:15:55;99063.44;;;31.69;19.22
54816;BME280;40715;55.752;37.884;2024-03-17T08:18:22;99061.56;;;31.70;19.16
54816;BME280;40715;55.752;37.884;2024-03-17T08:20:47;99065.34;;;31.69;19.58
54816;BME280;40715;55.752;37.884;2024-03-17T08:23:13;99059.22;;;32.20;19.20
54816;BME280;40715;55.752;37.884;2024-03-17T08:25:39;99055.28;;;31.69;19.23
54816;BME280;40715;55.752;37.884;2024-03-17T08:28:05;99053.50;;;32.14;18.94
54816;BME280;40715;55.752;37.884;2024-03-17T08:30:33;99056.69;;;31.65;19.63
54816;BME280;40715;55.752;37.884;2024-03-17T08:33:00;99049.78;;;31.54;19.44
54816;BME280;40715;55.752;37.884;2024-03-17T08:35:26;99050.31;;;31.49;19.28
54816;BME280;40715;55.752;37.884;2024-03-17T08:37:52;99053.53;;;32.06;18.95
54816;BME280;40715;55.752;37.884;2024-03-17T08:40:21;99053.00;;;31.58;19.39
54816;BME280;40715;55.752;37.884;2024-03-17T08:42:49;99057.66;;;31.49;19.77
54816;BME280;40715;55.752;37.884;2024-03-17T08:45:15;99057.16;;;31.45;19.34
54816;BME280;40715;55.752;37.884;2024-03-17T08:47:42;99050.69;;;31.46;19.28
54816;BME280;40715;55.752;37.884;2024-03-17T08:50:08;99050.69;;;31.46;19.66
54816;BME280;40715;55.752;37.884;2024-03-17T08:52:35;99045.63;;;31.43;19.50
54816;BME280;40715;55.752;37.884;2024-03-17T08:55:00;99045.63;;;31.43;19.87
54816;BME280;40715;55.752;37.884;2024-03-17T08:57:35;99040.53;;;31.40;19.51
54816;BME280;40715;55.752;37.884;2024-03-17T09:00:01;99044.13;;;31.94;19.36
54816;BME280;40715;55.752;37.884;2024-03-17T09:02:28;99044.22;;;31.47;19.32
54816;BME280;40715;55.752;37.884;2024-03-17T09:04:53;99052.00;;;31.36;19.86
54816;BME280;40715;55.752;37.884;2024-03-17T09:07:20;99048.78;;;31.32;19.99
54816;BME280;40715;55.752;37.884;2024-03-17T09:09:49;99045.22;;;31.31;19.79
54816;BME280;40715;55.752;37.884;2024-03-17T09:12:15;99047.06;;;31.31;19.90
54816;BME280;40715;55.752;37.884;2024-03-17T09:14:41;99048.13;;;31.30;19.39
54816;BME280;40715;55.752;37.884;2024-03-17T09:17:07;99049.78;;;31.31;19.97
54816;BME280;40715;55.752;37.884;2024-03-17T09:19:33;99047.06;;;31.31;19.54
54816;BME280;40715;55.752;37.884;2024-03-17T09:21:59;99038.25;;;31.29;20.08
54816;BME280;40715;55.752;37.884;2024-03-17T09:24:25;99041.81;;;31.29;19.71
54816;BME280;40715;55.752;37.884;2024-03-17T09:26:52;99039.66;;;31.25;19.82
54816;BME280;40715;55.752;37.884;2024-03-17T09:29:18;99033.19;;;31.26;19.66
54816;BME280;40715;55.752;37.884;2024-03-17T09:31:44;99034.84;;;31.27;20.07
54816;BME280;40715;55.752;37.884;2024-03-17T09:34:10;99031.16;;;31.81;19.45
54816;BME280;40715;55.752;37.884;2024-03-17T09:36:36;99040.59;;;31.32;19.83
54816;BME280;40715;55.752;37.884;2024-03-17T09:39:02;99037.13;;;31.23;19.97
54816;BME280;40715;55.752;37.884;2024-03-17T09:41:30;99040.56;;;31.17;19.71
54816;BME280;40715;55.752;37.884;2024-03-17T09:43:57;99043.63;;;31.14;19.74
54816;BME280;40715;55.752;37.884;2024-03-17T09:46:24;99037.34;;;31.13;19.94
54816;BME280;40715;55.752;37.884;2024-03-17T09:48:52;99031.72;;;31.15;20.16
54816;BME280;40715;55.752;37.884;2024-03-17T09:51:23;99031.91;;;31.13;19.88
54816;BME280;40715;55.752;37.884;2024-03-17T09:53:49;99023.09;;;31.11;19.79
54816;BME280;40715;55.752;37.884;2024-03-17T09:56:17;99032.94;;;31.12;19.86
54816;BME280;40715;55.752;37.884;2024-03-17T09:58:51;99025.63;;;31.13;20.00
54816;BME280;40715;55.752;37.884;2024-03-17T10:01:18;99031.06;;;31.13;20.25
54816;BME280;40715;55.752;37.884;2024-03-17T10:03:48;99018.69;;;31.10;20.17
54816;BME280;40715;55.752;37.884;2024-03-17T10:06:24;99023.75;;;31.13;20.01
54816;BME280;40715;55.752;37.884;2024-03-17T10:08:54;99030.75;;;31.08;20.08
54816;BME280;40715;55.752;37.884;2024-03-17T10:11:22;99021.28;;;31.04;19.88
54816;BME280;40715;55.752;37.884;2024-03-17T10:14:00;99024.31;;;31.09;19.88
54816;BME280;40715;55.752;37.884;2024-03-17T10:16:28;99017.34;;;31.06;19.93
54816;BME280;40715;55.752;37.884;2024-03-17T10:19:21;99011.53;;;31.09;20.12
54816;BME280;40715;55.752;37.884;2024-03-17T10:21:48;99011.25;;;31.04;20.12
54816;BME280;40715;55.752;37.884;2024-03-17T10:26:51;99003.75;;;30.98;20.26
54816;BME280;40715;55.752;37.884;2024-03-17T10:31:58;98992.88;;;30.98;20.37
54816;BME280;40715;55.752;37.884;2024-03-17T10:34:26;99002.25;;;30.95;19.84
54816;BME280;40715;55.752;37.884;2024-03-17T10:37:14;98994.44;;;31.01;20.33
54816;BME280;40715;55.752;37.884;2024-03-17T10:39:42;98989.50;;;30.96;20.27
54816;BME280;40715;55.752;37.884;2024-03-17T10:42:10;98985.81;;;30.89;20.07
54816;BME280;40715;55.752;37.884;2024-03-17T10:44:40;98992.28;;;30.88;20.43
54816;BME280;40715;55.752;37.884;2024-03-17T10:47:23;98987.50;;;30.90;20.50
54816;BME280;40715;55.752;37.884;2024-03-17T10:49:54;98990.41;;;30.88;19.99
54816;BME280;40715;55.752;37.884;2024-03-17T10:52:22;98989.06;;;30.84;20.07
54816;BME280;40715;55.752;37.884;2024-03-17T10:54:51;98982.97;;;30.82;20.07
54816;BME280;40715;55.752;37.884;2024-03-17T11:00:05;98985.69;;;30.82;20.38
54816;BME280;40715;55.752;37.884;2024-03-17T11:02:35;98984.19;;;30.79;20.55
54816;BME280;40715;55.752;37.884;2024-03-17T11:05:25;98984.38;;;30.78;20.33
54816;BME280;40715;55.752;37.884;2024-03-17T11:07:56;98983.34;;;30.79;20.07
54816;BME280;40715;55.752;37.884;2024-03-17T11:10:29;98986.63;;;30.74;20.16
54816;BME280;40715;55.752;37.884;2024-03-17T11:12:56;98985.28;;;30.70;20.15
54816;BME280;40715;55.752;37.884;2024-03-17T11:21:01;98982.00;;;30.75;20.30
54816;BME280;40715;55.752;37.884;2024-03-17T11:23:33;98989.19;;;30.68;20.11
54816;BME280;40715;55.752;37.884;2024-03-17T11:26:00;98985.78;;;30.66;20.55
54816;BME280;40715;55.752;37.884;2024-03-17T11:28:44;98987.63;;;31.20;19.73
54816;BME280;40715;55.752;37.884;2024-03-17T11:31:45;98985.69;;;30.82;20.04
54816;BME280;40715;55.752;37.884;2024-03-17T11:34:27;98978.69;;;30.64;20.23
54816;BME280;40715;55.752;37.884;2024-03-17T11:36:54;98982.66;;;30.54;20.55
54816;BME280;40715;55.752;37.884;2024-03-17T11:39:38;98975.03;;;30.49;20.33
54816;BME280;40715;55.752;37.884;2024-03-17T11:42:12;98978.22;;;30.53;20.44
54816;BME280;40715;55.752;37.884;2024-03-17T11:44:54;98965.69;;;30.52;20.57
54816;BME280;40715;55.752;37.884;2024-03-17T11:47:20;98970.25;;;30.51;20.53
54816;BME280;40715;55.752;37.884;2024-03-17T11:49:46;98962.78;;;30.53;20.64
54816;BME280;40715;55.752;37.884;2024-03-17T11:52:14;98968.41;;;30.52;20.27
54816;BME280;40715;55.752;37.884;2024-03-17T11:54:43;98964.53;;;30.46;20.65
54816;BME280;40715;55.752;37.884;2024-03-17T11:57:14;98967.06;;;30.48;20.47
54816;BME280;40715;55.752;37.884;2024-03-17T11:59:46;98969.78;;;30.48;20.20
54816;BME280;40715;55.752;37.884;2024-03-17T12:02:30;98963.25;;;30.57;20.45
54816;BME280;40715;55.752;37.884;2024-03-17T12:04:58;98961.81;;;30.46;20.33
54816;BME280;40715;55.752;37.884;2024-03-17T12:07:24;98962.00;;;30.44;20.72
54816;BME280;40715;55.752;37.884;2024-03-17T12:09:53;98964.88;;;30.43;20.54
54816;BME280;40715;55.752;37.884;2024-03-17T12:12:25;98957.56;;;30.43;20.31
54816;BME280;40715;55.752;37.884;2024-03-17T12:15:02;98957.72;;;30.42;20.42
54816;BME280;40715;55.752;37.884;2024-03-17T12:17:30;98967.59;;;30.43;20.64
54816;BME280;40715;55.752;37.884;2024-03-17T12:19:56;98955.69;;;30.44;20.36
54816;BME280;40715;55.752;37.884;2024-03-17T12:22:23;98955.69;;;30.44;20.81
54816;BME280;40715;55.752;37.884;2024-03-17T12:24:52;98960.63;;;30.40;20.56
54816;BME280;40715;55.752;37.884;2024-03-17T12:27:22;98958.91;;;30.39;20.54
54816;BME280;40715;55.752;37.884;2024-03-17T12:29:50;98956.38;;;30.38;20.51
54816;BME280;40715;55.752;37.884;2024-03-17T12:32:21;98960.97;;;30.37;20.59
54816;BME280;40715;55.752;37.884;2024-03-17T12:34:54;98957.22;;;30.38;20.69
54816;BME280;40715;55.752;37.884;2024-03-17T12:39:47;98954.69;;;30.37;20.79
54816;BME280;40715;55.752;37.884;2024-03-17T12:42:33;98959.28;;;30.36;20.64
54816;BME280;40715;55.752;37.884;2024-03-17T12:45:00;98943.81;;;30.37;20.41
54816;BME280;40715;55.752;37.884;2024-03-17T12:47:32;98953.84;;;30.36;20.88
54816;BME280;40715;55.752;37.884;2024-03-17T12:50:02;98952.50;;;30.32;20.88
54816;BME280;40715;55.752;37.884;2024-03-17T12:52:33;98950.16;;;30.29;20.99
54816;BME280;40715;55.752;37.884;2024-03-17T12:57:44;98945.19;;;30.33;20.46
54816;BME280;40715;55.752;37.884;2024-03-17T13:00:29;98943.69;;;30.30;20.62
54816;BME280;40715;55.752;37.884;2024-03-17T13:02:59;98937.75;;;30.26;20.91
54816;BME280;40715;55.752;37.884;2024-03-17T13:05:25;98946.94;;;30.25;20.84
54816;BME280;40715;55.752;37.884;2024-03-17T13:07:51;98939.84;;;30.79;20.00
54816;BME280;40715;55.752;37.884;2024-03-17T13:10:20;98941.00;;;30.30;20.60
54816;BME280;40715;55.752;37.884;2024-03-17T13:12:47;98932.53;;;30.17;20.58